The Wychwood Brewery Cotswold Classic
Skip Navigation Links
Results
Team Results
Leaderboard
Past Results
Race Stats
Smartphone Results
Race Website
17 September 2017
Click your name for detailed results
Page 1 of 7 (330 items)
[1]234567
Pos
Bib No
Fav
Share
Print
Name
Time
Chip Time
Category
Cat Pos
County Cat.
County Cat. Pos.
Gender
Gen Pos
Club
Pace
121James BOLTON55:13.055:12.7V401V401Male1WOODSTOCK HARRIERS AC10.9 m/hr
2137Tegs JONES57:51.157:50.9V402V402Male2OXFORD CITY AC10.4 m/hr
310Mark BAKER59:31.759:30.1MSen1MSen1Male3EYNSHAM ROAD RUNNERS10.1 m/hr
4156Dan LEWIS 1:00:08.61:00:06.7V403V403Male4EYNSHAM ROAD RUNNERS10.0 m/hr
5236Robert STOREY1:00:21.21:00:20.4V501V501Male5EYNSHAM ROAD RUNNERS 9.9 m/hr
6244Matthew THATCHER 1:00:35.71:00:34.3MSen2MSen2Male6ALCHESTER RUNNING CLUB 9.9 m/hr
7300Jason COOKE1:01:21.01:01:20.6V404  Male7WHITE HORSE HARRIERS 9.8 m/hr
832Rob BROWN1:01:36.41:01:35.0MSen3MSen3Male8CIRENCESTER AC 9.7 m/hr
96John ATYEO1:02:03.01:02:02.8V502V502Male9OXFORD CITY AC 9.7 m/hr
1071Chris PRINCE1:02:09.91:02:09.1V405V404Male10HEADINGTON RR 9.7 m/hr
11106Antony HANNER HOPWOOD1:02:11.41:02:09.5V406V405Male11HEADINGTON RR 9.6 m/hr
1216Alex BEKELE1:02:13.01:02:10.6MSen4MSen4Male12KIDLINGTON RUNNING CLUB 9.6 m/hr
13212Steve ROUND1:02:22.11:02:21.2V407V406Male13CHERWELL RUNNERS & JOGGERS 9.6 m/hr
14199Benedict POLLARD1:02:30.21:02:26.9V408V407Male14EYNSHAM ROAD RUNNERS 9.6 m/hr
1514Adam BAYLISS1:02:34.61:02:32.5MSen5MSen5Male15OXFORD CITY AC 9.6 m/hr
16286David CANTWELL1:02:39.81:02:39.4V503V503Male16WOODSTOCK HARRIERS AC 9.6 m/hr
1752Thomas CONEY1:02:51.01:02:49.1V409V408Male17ABINGDON AC 9.5 m/hr
18233Andrew STICKLEY1:02:57.11:02:55.4V4010V409Male18ALCHESTER RUNNING CLUB 9.5 m/hr
1985Howard EWAN1:02:57.61:02:56.1MSen6MSen6Male19CIRENCESTER AC 9.5 m/hr
20326Ian THOMAS1:03:02.21:03:00.9V504  Male20CHERWELL RUNNERS & JOGGERS 9.5 m/hr
21265Dafydd WARBURTON1:03:07.71:03:02.2V4011V4010Male21EYNSHAM ROAD RUNNERS 9.5 m/hr
22331George WOOD1:03:15.31:03:13.4MSen7  Male22ABINGDON AC 9.5 m/hr
2348James CLAYTON1:03:28.61:03:26.5MSen8MSen7Male23ABINGDON AC 9.5 m/hr
24152Mark LANE1:03:49.11:03:46.0V4012  Male24WHITE HORSE HARRIERS 9.4 m/hr
2595Harry GEDDES1:04:03.71:04:03.4MSen9MSen8Male25HEADINGTON RR 9.4 m/hr
26150Ian LAMBOURN1:04:06.11:04:03.1V505V504Male26WHITE HORSE HARRIERS 9.4 m/hr
27288Simon DALES1:04:22.41:04:22.1V506V505Male27HEADINGTON RR 9.3 m/hr
28304Jonathan HARRISON1:04:25.91:04:21.0MSen10  Male28  9.3 m/hr
29133Paul JEGOU1:04:35.11:04:34.2V4013V4011Male29WHITE HORSE HARRIERS 9.3 m/hr
30360Pearce PHILLIPS1:04:58.91:04:52.9V507  Male30BEARBROOK RUNNING CLUB 9.2 m/hr
31327Jeffrey TRYBUS1:05:39.11:05:37.8MSen11  Male31CHERWELL RUNNERS & JOGGERS 9.1 m/hr
32280Paul WISBEY1:05:57.51:05:55.8V4014  Male32  9.1 m/hr
3342Rob HALLIFAX1:06:26.51:06:24.8MSen12MSen9Male33HEADINGTON RR 9.0 m/hr
34155Michelle DORRINGTON1:06:28.31:06:27.1FSen1FSen1Female1HEADINGTON RR 9.0 m/hr
3527Daniel BREMNER1:06:34.11:06:32.9MSen13MSen10Male34HEADINGTON RR 9.0 m/hr
36318Neil PINNELL1:06:34.21:06:23.7MSen14  Male35  9.0 m/hr
37354Kevin GAME1:06:36.01:06:32.6V4015  Male36WOODSTOCK HARRIERS AC 9.0 m/hr
38309Matthew LOCK1:06:39.61:06:38.0MSen15  Male37WITNEY ROAD RUNNERS 9.0 m/hr
39347Bonnie VAN WILYERBURG1:06:55.31:06:51.6FSen2  Female2  9.0 m/hr
40353Ed WHITE1:07:08.21:07:03.7MSen16  Male38  8.9 m/hr
4128Graham BRIDGES1:07:09.11:07:05.0V508V506Male39EYNSHAM ROAD RUNNERS 8.9 m/hr
427Jamie BAGNALL1:07:10.91:07:09.8MSen17MSen11Male40ALCHESTER RUNNING CLUB 8.9 m/hr
43346Jim THORN1:07:11.81:07:08.1V509  Male41  8.9 m/hr
44146Kate KRZYWIEC1:07:12.61:07:09.4V351  Female3NORTH COTSWOLD TRI & RUN 8.9 m/hr
45219Mark SCHOFIELD1:07:27.51:07:20.6V4016V4012Male42EYNSHAM ROAD RUNNERS 8.9 m/hr
46325Graham TAYLOR1:07:31.41:07:28.5V5010  Male43  8.9 m/hr
47258Samantha USHER1:07:36.01:07:32.9V451V451Female4ALCHESTER RUNNING CLUB 8.9 m/hr
48307Marcus HILL1:07:38.51:07:35.4V4017  Male44HEADINGTON RR 8.9 m/hr
49372Paul MCENTEGART1:07:40.01:07:35.0V4018  Male45  8.9 m/hr
50204Philip REEVES1:08:02.81:07:56.6V4019V4013Male46WIMBLEDON WINDMILERS 8.8 m/hr
Page 1 of 7 (330 items)
[1]234567
fb

HyperLink Copyright (c) G Vincent, 2017